Time;durP1;ratioP1;P1;durP2;ratioP2;P2;SDS_P1;SDS_P2;PMS_P1;PMS_P2;Temp;Humidity;BMP_temperature;BMP_pressure;BME280_temperature;BME280_humidity;BME280_pressure;Samples;Min_cycle;Max_cycle;Signal;HPM_P1;HPM_P2
2021/05/17 00:01:14;;;;;;;57.30;2.60;;;10.80;1.00;;;;;;5092650;28;20467;-66
2021/05/17 00:03:43;;;;;;;57.23;2.40;;;10.80;1.00;;;;;;5092147;28;20851;-65
2021/05/17 00:06:10;;;;;;;57.37;2.30;;;10.70;1.00;;;;;;5092992;28;20484;-66
2021/05/17 00:08:37;;;;;;;57.27;2.47;;;10.80;1.00;;;;;;5092774;28;20576;-66
2021/05/17 00:11:05;;;;;;;56.97;2.20;;;10.80;1.00;;;;;;5092568;28;20582;-66
2021/05/17 00:13:31;;;;;;;57.17;2.33;;;10.80;1.00;;;;;;5092065;28;20443;-67
2021/05/17 00:15:58;;;;;;;57.30;2.33;;;10.80;1.00;;;;;;5092373;28;20556;-65
2021/05/17 00:18:24;;;;;;;57.47;2.60;;;10.80;1.00;;;;;;5090010;28;20535;-66
2021/05/17 00:20:51;;;;;;;57.07;2.37;;;10.80;1.00;;;;;;5080337;28;20542;-66
2021/05/17 00:23:18;;;;;;;57.27;2.50;;;10.70;1.00;;;;;;5071754;28;20454;-67
2021/05/17 00:25:45;;;;;;;57.03;2.30;;;10.70;1.00;;;;;;5071954;28;20446;-65
2021/05/17 00:28:13;;;;;;;57.30;2.40;;;10.70;1.00;;;;;;5072095;28;20628;-66
2021/05/17 00:30:40;;;;;;;57.13;2.37;;;10.70;1.00;;;;;;5071806;28;20533;-66
2021/05/17 00:33:07;;;;;;;57.10;2.20;;;10.70;1.00;;;;;;5071626;28;20486;-67
2021/05/17 00:35:33;;;;;;;57.07;2.40;;;10.70;1.00;;;;;;5071649;28;20468;-66
2021/05/17 00:38:00;;;;;;;57.07;2.37;;;10.60;1.00;;;;;;5071894;28;20445;-66
2021/05/17 00:40:26;;;;;;;57.43;2.40;;;10.60;1.00;;;;;;5072207;28;20501;-66
2021/05/17 00:42:53;;;;;;;57.60;2.70;;;10.60;1.00;;;;;;5071539;28;20454;-66
2021/05/17 00:45:21;;;;;;;57.30;2.43;;;10.60;1.00;;;;;;5071383;28;20484;-66
2021/05/17 00:47:50;;;;;;;57.27;2.43;;;10.60;1.00;;;;;;5071588;28;20482;-65
2021/05/17 00:50:20;;;;;;;57.40;2.43;;;10.60;1.00;;;;;;5084410;28;20911;-66
2021/05/17 00:52:47;;;;;;;57.17;2.40;;;10.60;1.00;;;;;;5091369;28;20497;-67
2021/05/17 00:55:15;;;;;;;57.33;2.50;;;10.60;1.00;;;;;;5091669;28;20536;-66
2021/05/17 00:57:42;;;;;;;57.17;2.30;;;10.60;1.00;;;;;;5091704;28;20450;-66
2021/05/17 01:00:10;;;;;;;57.07;2.40;;;10.60;1.00;;;;;;5092042;28;20835;-66
2021/05/17 01:02:38;;;;;;;57.20;2.40;;;10.50;1.00;;;;;;5091467;28;20552;-65
2021/05/17 01:05:06;;;;;;;57.37;2.40;;;10.60;1.00;;;;;;5091796;28;20755;-66
2021/05/17 01:07:33;;;;;;;56.97;2.40;;;10.50;1.00;;;;;;5091638;28;20509;-66
2021/05/17 01:10:00;;;;;;;57.20;2.47;;;10.60;1.00;;;;;;5091581;28;20445;-66
2021/05/17 01:12:27;;;;;;;57.07;2.30;;;10.60;1.00;;;;;;5091024;28;20886;-66
2021/05/17 01:14:57;;;;;;;57.17;2.37;;;10.60;1.00;;;;;;5091581;28;20461;-66
2021/05/17 01:17:25;;;;;;;57.37;2.50;;;10.60;1.00;;;;;;5091900;28;20855;-66
2021/05/17 01:20:04;;;;;;;57.40;2.30;;;10.50;1.00;;;;;;5085543;28;21112;-66
2021/05/17 01:22:37;;;;;;;57.10;2.03;;;10.50;1.00;;;;;;5070820;28;20879;-66
2021/05/17 01:25:06;;;;;;;57.07;2.40;;;10.50;1.00;;;;;;5071368;28;20820;-65
2021/05/17 01:27:34;;;;;;;56.93;2.40;;;10.50;1.00;;;;;;5071231;28;20489;-66
2021/05/17 01:30:01;;;;;;;57.27;2.40;;;10.40;1.00;;;;;;5071189;28;20451;-66
2021/05/17 01:32:28;;;;;;;57.27;2.33;;;10.40;1.00;;;;;;5071001;28;20463;-66
2021/05/17 01:34:55;;;;;;;57.20;2.27;;;10.40;1.00;;;;;;5071129;28;20449;-66
2021/05/17 01:37:25;;;;;;;57.30;2.20;;;10.40;1.00;;;;;;5071120;28;20449;-67
2021/05/17 01:39:53;;;;;;;56.97;2.30;;;10.40;1.00;;;;;;5071234;28;20450;-66
2021/05/17 01:42:23;;;;;;;57.07;2.30;;;10.40;1.00;;;;;;5070900;28;20474;-65
2021/05/17 01:44:51;;;;;;;56.97;2.30;;;10.40;1.00;;;;;;5070967;28;21037;-65
2021/05/17 01:47:20;;;;;;;57.23;2.40;;;10.40;1.00;;;;;;5071144;28;20818;-66
2021/05/17 01:49:49;;;;;;;57.10;2.43;;;10.40;1.00;;;;;;5070896;28;20474;-66
2021/05/17 01:52:17;;;;;;;57.40;2.30;;;10.50;1.00;;;;;;5068338;28;20918;-66
2021/05/17 01:54:45;;;;;;;57.13;2.30;;;10.40;1.00;;;;;;5070943;28;20474;-67
2021/05/17 01:57:11;;;;;;;57.17;2.30;;;10.40;1.00;;;;;;5071241;28;20446;-66
2021/05/17 01:59:39;;;;;;;57.30;2.37;;;10.40;1.00;;;;;;5071049;28;20905;-65
2021/05/17 02:02:05;;;;;;;57.17;2.30;;;10.40;1.00;;;;;;5072108;28;20466;-66
2021/05/17 02:04:32;;;;;;;57.13;2.40;;;10.30;1.00;;;;;;5074469;28;20458;-66
2021/05/17 02:06:58;;;;;;;57.17;2.60;;;10.30;1.00;;;;;;5075232;28;20536;-66
2021/05/17 02:09:27;;;;;;;57.27;2.40;;;10.30;1.00;;;;;;5074810;28;20500;-66
2021/05/17 02:11:53;;;;;;;57.03;2.17;;;10.30;1.00;;;;;;5074160;28;20479;-66
2021/05/17 02:14:22;;;;;;;57.17;2.40;;;10.40;1.00;;;;;;5074344;28;20528;-65
2021/05/17 02:16:50;;;;;;;59.00;2.70;;;10.40;1.00;;;;;;5074520;28;20445;-66
2021/05/17 02:19:22;;;;;;;57.17;2.30;;;10.40;1.00;;;;;;5074716;28;20533;-66
2021/05/17 02:21:49;;;;;;;57.07;2.33;;;10.40;1.00;;;;;;5073405;28;21005;-66
2021/05/17 02:24:15;;;;;;;57.30;2.43;;;10.30;1.00;;;;;;5091414;28;20449;-65
2021/05/17 02:26:42;;;;;;;57.40;2.50;;;10.30;1.00;;;;;;5094655;28;20485;-66
2021/05/17 02:29:10;;;;;;;57.57;2.40;;;10.30;1.00;;;;;;5094758;28;20576;-66
2021/05/17 02:31:37;;;;;;;57.20;2.40;;;10.30;1.00;;;;;;5094530;28;20497;-65
2021/05/17 02:34:05;;;;;;;57.30;2.30;;;10.30;1.00;;;;;;5093993;28;20530;-66
2021/05/17 02:36:31;;;;;;;56.97;2.40;;;10.30;1.00;;;;;;5094417;28;20574;-66
2021/05/17 02:38:58;;;;;;;57.07;2.40;;;10.30;1.00;;;;;;5093996;28;20532;-66
2021/05/17 02:41:27;;;;;;;57.27;2.30;;;10.30;1.00;;;;;;5094464;28;21065;-66
2021/05/17 02:43:55;;;;;;;56.97;2.30;;;10.30;1.00;;;;;;5093573;28;20946;-66
2021/05/17 02:46:22;;;;;;;57.27;2.40;;;10.40;1.00;;;;;;5094370;28;20455;-66
2021/05/17 02:48:49;;;;;;;57.10;2.50;;;10.40;1.00;;;;;;5094419;28;20846;-66
2021/05/17 02:51:17;;;;;;;57.20;2.50;;;10.40;1.00;;;;;;5094364;28;20593;-66
2021/05/17 02:54:10;;;;;;;57.13;2.33;;;10.40;1.00;;;;;;5084637;28;20691;-66
2021/05/17 02:57:02;;;;;;;57.17;2.40;;;10.40;1.00;;;;;;5085781;28;20547;-66
2021/05/17 02:59:46;;;;;;;57.17;2.33;;;10.40;1.00;;;;;;5094159;28;20576;-66
2021/05/17 03:02:17;;;;;;;57.23;2.37;;;10.30;1.00;;;;;;5093939;28;21026;-66
2021/05/17 03:04:50;;;;;;;57.40;2.30;;;10.40;1.00;;;;;;5093645;28;21000;-65
2021/05/17 03:07:19;;;;;;;57.07;2.37;;;10.40;1.00;;;;;;5093927;28;20584;-66
2021/05/17 03:09:45;;;;;;;57.20;2.40;;;10.40;1.00;;;;;;5093686;28;20454;-66
2021/05/17 03:12:13;;;;;;;57.40;2.37;;;10.40;1.00;;;;;;5092693;28;20584;-66
2021/05/17 03:14:42;;;;;;;57.07;2.30;;;10.30;1.00;;;;;;5093456;28;20545;-66
2021/05/17 03:17:11;;;;;;;57.23;2.30;;;10.30;1.00;;;;;;5093639;28;20449;-66
2021/05/17 03:19:37;;;;;;;57.17;2.40;;;10.20;1.00;;;;;;5093650;28;20502;-66
2021/05/17 03:22:05;;;;;;;57.03;2.30;;;10.30;1.00;;;;;;5093392;28;20886;-66
2021/05/17 03:24:37;;;;;;;57.17;2.20;;;10.20;1.00;;;;;;5090357;28;20501;-66
2021/05/17 03:27:18;;;;;;;57.17;2.40;;;10.20;1.00;;;;;;5093296;28;20461;-66
2021/05/17 03:29:45;;;;;;;57.60;2.50;;;10.20;1.00;;;;;;5093297;28;20449;-66
2021/05/17 03:32:11;;;;;;;57.17;2.23;;;10.30;1.00;;;;;;5093055;28;20579;-66
2021/05/17 03:34:37;;;;;;;57.20;2.30;;;10.30;1.00;;;;;;5093400;28;20587;-66
2021/05/17 03:37:06;;;;;;;57.37;2.33;;;10.30;1.00;;;;;;5093369;28;20585;-66
2021/05/17 03:39:37;;;;;;;57.27;2.40;;;10.20;1.00;;;;;;5093514;28;20460;-66
2021/05/17 03:42:05;;;;;;;57.03;2.20;;;10.30;1.00;;;;;;5093057;28;20473;-66
2021/05/17 03:44:31;;;;;;;57.03;2.30;;;10.20;1.00;;;;;;5093025;28;20530;-67
2021/05/17 03:46:57;;;;;;;57.10;2.50;;;10.30;1.00;;;;;;5093175;28;20441;-66
2021/05/17 03:49:24;;;;;;;57.10;2.33;;;10.30;1.00;;;;;;5093215;28;20900;-66
2021/05/17 03:51:50;;;;;;;57.13;2.30;;;10.30;1.00;;;;;;5092796;28;20572;-66
2021/05/17 03:54:17;;;;;;;57.27;2.20;;;10.30;1.00;;;;;;5092965;28;20499;-65
2021/05/17 03:56:44;;;;;;;57.00;2.30;;;10.30;1.00;;;;;;5089450;28;20545;-67
2021/05/17 03:59:14;;;;;;;57.13;2.40;;;10.30;1.00;;;;;;5092821;28;20965;-66
2021/05/17 04:01:40;;;;;;;57.30;2.20;;;10.30;1.00;;;;;;5092877;28;20473;-66
2021/05/17 04:04:07;;;;;;;57.13;2.70;;;10.20;1.00;;;;;;5092267;28;20933;-66
2021/05/17 04:06:41;;;;;;;56.97;2.30;;;10.30;1.00;;;;;;5092669;28;20495;-66
2021/05/17 04:14:37;;;;;;;57.17;2.30;;;10.30;1.00;;;;;;5092496;28;20424;-66
2021/05/17 04:17:03;;;;;;;57.10;2.30;;;10.30;1.00;;;;;;5092563;28;20914;-66
2021/05/17 04:19:30;;;;;;;57.17;2.20;;;10.30;1.00;;;;;;5093098;28;20856;-66
2021/05/17 04:21:57;;;;;;;57.17;2.40;;;10.40;1.00;;;;;;5091939;28;20914;-66
2021/05/17 04:24:23;;;;;;;57.10;2.23;;;10.40;1.00;;;;;;5091370;28;20545;-66
2021/05/17 04:26:49;;;;;;;57.17;2.30;;;10.40;1.00;;;;;;5090877;28;20444;-67
2021/05/17 04:29:17;;;;;;;57.37;2.30;;;10.40;1.00;;;;;;5073159;28;20863;-67
2021/05/17 04:31:43;;;;;;;57.20;2.40;;;10.50;1.00;;;;;;5092320;28;20481;-66
2021/05/17 04:34:09;;;;;;;57.47;2.90;;;10.50;1.00;;;;;;5091703;28;20477;-66
2021/05/17 04:36:35;;;;;;;57.13;2.40;;;10.60;1.00;;;;;;5092192;28;20476;-66
2021/05/17 04:39:03;;;;;;;57.07;2.40;;;10.60;1.00;;;;;;5092295;28;20815;-66
2021/05/17 04:41:30;;;;;;;57.37;2.50;;;10.60;1.00;;;;;;5092071;28;20479;-66
2021/05/17 04:43:56;;;;;;;57.00;2.27;;;10.60;1.00;;;;;;5091756;28;20451;-66
2021/05/17 04:46:24;;;;;;;57.30;2.40;;;10.60;1.00;;;;;;5092037;28;20533;-66
2021/05/17 04:48:50;;;;;;;57.13;2.40;;;10.60;1.00;;;;;;5091749;28;20887;-65
2021/05/17 04:51:19;;;;;;;56.97;2.40;;;10.60;1.00;;;;;;5091712;28;21033;-66
2021/05/17 04:53:45;;;;;;;57.40;2.47;;;10.70;1.00;;;;;;5091665;28;20452;-66
2021/05/17 04:56:12;;;;;;;57.33;2.40;;;10.70;1.00;;;;;;5092121;28;20537;-66
2021/05/17 04:58:38;;;;;;;57.03;2.47;;;10.70;1.00;;;;;;5084968;28;20448;-66
2021/05/17 05:01:04;;;;;;;57.17;2.40;;;10.80;1.00;;;;;;5078527;28;20545;-65
2021/05/17 05:03:32;;;;;;;57.13;2.43;;;10.80;1.00;;;;;;5091089;28;20481;-66
2021/05/17 05:05:59;;;;;;;57.23;2.47;;;10.80;1.00;;;;;;5091846;28;21001;-66
2021/05/17 05:08:25;;;;;;;58.43;2.70;;;10.80;1.00;;;;;;5091780;28;20576;-66
2021/05/17 05:10:51;;;;;;;57.27;2.40;;;10.80;1.00;;;;;;5091507;28;20568;-66
2021/05/17 05:13:18;;;;;;;57.43;2.43;;;10.80;1.00;;;;;;5091529;28;20506;-66
2021/05/17 05:15:44;;;;;;;57.20;2.40;;;10.70;1.00;;;;;;5091351;28;20447;-65
2021/05/17 05:18:11;;;;;;;57.27;2.40;;;10.70;1.00;;;;;;5091498;28;20536;-65
2021/05/17 05:20:38;;;;;;;57.17;2.50;;;10.70;1.00;;;;;;5091787;28;20446;-65
2021/05/17 05:23:12;;;;;;;57.10;2.40;;;10.80;1.00;;;;;;5091224;28;20990;-65
2021/05/17 05:26:02;;;;;;;57.03;2.43;;;10.80;1.00;;;;;;5091241;28;20958;-65
2021/05/17 05:28:37;;;;;;;57.10;2.47;;;10.70;1.00;;;;;;5091391;28;20491;-66
2021/05/17 05:31:09;;;;;;;57.30;2.33;;;10.70;1.00;;;;;;5090468;28;20491;-66
2021/05/17 05:33:35;;;;;;;57.17;2.50;;;10.70;1.00;;;;;;5090589;28;20446;-66
2021/05/17 05:36:03;;;;;;;56.97;2.40;;;10.70;1.00;;;;;;5092929;28;21030;-66
2021/05/17 05:38:29;;;;;;;57.03;2.37;;;10.70;1.00;;;;;;5096176;28;20563;-67
2021/05/17 05:40:56;;;;;;;57.20;2.40;;;10.90;1.00;;;;;;5095517;28;20466;-66
2021/05/17 05:43:22;;;;;;;57.20;2.50;;;11.10;1.00;;;;;;5095828;28;20446;-66
2021/05/17 05:45:50;;;;;;;56.83;2.33;;;11.20;1.00;;;;;;5095666;28;20541;-66
2021/05/17 05:48:17;;;;;;;56.97;2.40;;;11.40;1.00;;;;;;5095637;28;21036;-66
2021/05/17 05:50:45;;;;;;;56.60;2.30;;;11.40;1.00;;;;;;5095634;28;20445;-66
2021/05/17 05:53:13;;;;;;;57.07;2.23;;;11.40;1.00;;;;;;5095354;28;20482;-66
2021/05/17 05:55:39;;;;;;;57.20;2.40;;;11.40;1.00;;;;;;5095142;28;20533;-66
2021/05/17 05:58:05;;;;;;;58.00;2.90;;;11.50;1.00;;;;;;5095427;28;20469;-66
2021/05/17 06:00:33;;;;;;;56.93;2.23;;;11.60;1.00;;;;;;5095214;28;20473;-66
2021/05/17 06:02:59;;;;;;;56.87;2.30;;;11.80;1.00;;;;;;5095396;28;20536;-66
2021/05/17 06:05:26;;;;;;;57.10;2.00;;;11.90;1.00;;;;;;5095111;28;20547;-67
2021/05/17 06:07:53;;;;;;;57.10;3.10;;;12.00;1.00;;;;;;5095147;28;20500;-67
2021/05/17 06:10:21;;;;;;;56.87;2.20;;;12.10;1.00;;;;;;5094834;28;20825;-66
2021/05/17 06:12:48;;;;;;;56.97;2.13;;;12.10;1.00;;;;;;5095064;28;21137;-66
2021/05/17 06:15:16;;;;;;;56.87;2.30;;;12.10;1.00;;;;;;5095116;28;20902;-66
2021/05/17 06:17:43;;;;;;;56.93;2.30;;;12.10;1.00;;;;;;5095195;28;20453;-66
2021/05/17 06:20:11;;;;;;;57.27;2.20;;;12.10;1.00;;;;;;5094942;28;20450;-66
2021/05/17 06:22:38;;;;;;;57.07;2.40;;;12.10;1.00;;;;;;5094584;28;20545;-67
2021/05/17 06:25:06;;;;;;;56.77;2.33;;;12.10;1.00;;;;;;5094626;28;21031;-66
2021/05/17 06:27:34;;;;;;;56.83;2.30;;;12.00;1.00;;;;;;5094892;28;20774;-66
2021/05/17 06:30:01;;;;;;;57.03;2.40;;;12.00;1.00;;;;;;5094937;28;20442;-66
2021/05/17 06:32:29;;;;;;;57.03;2.40;;;12.00;1.00;;;;;;5094395;28;20544;-67
2021/05/17 06:34:56;;;;;;;57.13;2.30;;;12.00;1.00;;;;;;5094538;28;20450;-67
2021/05/17 06:37:22;;;;;;;57.07;2.40;;;12.10;1.00;;;;;;5094671;28;20446;-66
2021/05/17 06:39:49;;;;;;;56.87;2.40;;;12.10;1.00;;;;;;5094738;28;20451;-66
2021/05/17 06:42:16;;;;;;;56.67;2.30;;;12.10;1.00;;;;;;5094312;28;20524;-64
2021/05/17 06:44:44;;;;;;;57.10;2.37;;;12.00;1.00;;;;;;5094444;28;20535;-64
2021/05/17 06:47:11;;;;;;;56.87;2.10;;;12.00;1.00;;;;;;5093539;28;20457;-63
2021/05/17 06:49:38;;;;;;;56.67;2.20;;;12.10;1.00;;;;;;5094508;28;21203;-63
2021/05/17 06:52:05;;;;;;;56.97;2.20;;;12.10;1.00;;;;;;5093963;28;20466;-64
2021/05/17 06:54:32;;;;;;;56.73;2.20;;;12.20;1.00;;;;;;5094306;28;20517;-63
2021/05/17 06:57:06;;;;;;;57.00;2.20;;;12.10;1.00;;;;;;5094375;28;20946;-67
2021/05/17 06:59:42;;;;;;;56.97;2.20;;;12.20;1.00;;;;;;5094943;28;20438;-67
2021/05/17 07:02:14;;;;;;;56.87;2.30;;;12.30;1.00;;;;;;5093992;28;20496;-67
2021/05/17 07:04:43;;;;;;;56.93;2.10;;;12.50;1.00;;;;;;5094199;28;20495;-67
2021/05/17 07:07:10;;;;;;;56.80;2.30;;;12.70;1.00;;;;;;5094223;28;20477;-66
2021/05/17 07:12:22;;;;;;;57.20;2.20;;;13.20;1.00;;;;;;5093599;28;20543;-66
2021/05/17 07:14:48;;;;;;;56.93;2.20;;;13.40;1.00;;;;;;5093771;28;20526;-67
2021/05/17 07:17:16;;;;;;;56.77;2.10;;;13.50;1.00;;;;;;5094068;28;20449;-67
2021/05/17 07:19:43;;;;;;;57.20;2.10;;;13.50;1.00;;;;;;5093841;28;20984;-66
2021/05/17 07:24:54;;;;;;;56.87;2.20;;;13.60;1.00;;;;;;5093714;28;20438;-66
2021/05/17 07:27:20;;;;;;;56.90;2.20;;;13.60;1.00;;;;;;5093764;28;20882;-66
2021/05/17 07:29:49;;;;;;;57.03;2.40;;;13.60;1.00;;;;;;5093883;28;20590;-67
2021/05/17 07:32:16;;;;;;;57.07;2.40;;;13.60;1.00;;;;;;5093614;28;20811;-67
2021/05/17 07:34:43;;;;;;;61.87;3.13;;;13.70;1.00;;;;;;5093512;28;20452;-67
2021/05/17 07:37:09;;;;;;;57.17;2.20;;;13.60;1.00;;;;;;5093694;28;20528;-67
2021/05/17 07:39:36;;;;;;;56.87;2.20;;;13.50;1.00;;;;;;5093285;28;20498;-66
2021/05/17 07:42:03;;;;;;;57.07;2.40;;;13.40;1.00;;;;;;5093229;28;20478;-66
2021/05/17 07:44:30;;;;;;;57.03;2.27;;;13.30;1.00;;;;;;5093503;28;20533;-67
2021/05/17 07:46:56;;;;;;;57.20;2.30;;;13.40;1.00;;;;;;5093452;28;20458;-67
2021/05/17 07:49:34;;;;;;;57.07;2.47;;;13.60;1.00;;;;;;5085471;28;20550;-66
2021/05/17 07:52:00;;;;;;;57.10;2.23;;;13.70;1.00;;;;;;5089430;28;20466;-67
2021/05/17 07:54:27;;;;;;;57.17;2.50;;;13.90;1.00;;;;;;5077112;28;20451;-67
2021/05/17 07:56:53;;;;;;;56.97;2.30;;;14.20;1.00;;;;;;5072923;28;20451;-67
2021/05/17 07:59:20;;;;;;;57.27;2.60;;;14.40;1.00;;;;;;5072847;28;20531;-67
2021/05/17 08:03:10;;;;;;;57.70;3.67;;;14.40;1.00;;;;;;5150242;27;20544;-67
2021/05/17 08:05:37;;;;;;;56.97;2.40;;;14.70;1.00;;;;;;5150260;27;20442;-66
2021/05/17 08:08:03;;;;;;;57.03;2.20;;;14.90;1.00;;;;;;5150642;27;20531;-66
2021/05/17 08:10:30;;;;;;;57.30;2.17;;;15.00;1.00;;;;;;5150359;27;20576;-67
2021/05/17 08:12:56;;;;;;;56.97;2.10;;;15.10;1.00;;;;;;5150052;27;20475;-67
2021/05/17 08:15:23;;;;;;;57.10;2.40;;;15.20;1.00;;;;;;5150318;27;20905;-66
2021/05/17 08:17:49;;;;;;;56.60;2.50;;;15.20;1.00;;;;;;5150652;27;20471;-66
2021/05/17 08:20:16;;;;;;;56.87;2.10;;;15.10;1.00;;;;;;5150393;27;20527;-66
2021/05/17 08:22:43;;;;;;;56.97;2.17;;;15.10;1.00;;;;;;5149930;27;20571;-67
2021/05/17 08:25:10;;;;;;;57.17;2.20;;;15.10;1.00;;;;;;5149963;27;20550;-66
2021/05/17 08:27:37;;;;;;;56.90;2.30;;;15.00;1.00;;;;;;5150115;27;20522;-66
2021/05/17 08:30:06;;;;;;;57.07;2.37;;;15.00;1.00;;;;;;5149976;27;20460;-66
2021/05/17 08:32:32;;;;;;;57.10;2.27;;;15.10;1.00;;;;;;5149615;27;20547;-67
2021/05/17 08:34:59;;;;;;;56.77;2.30;;;15.20;1.00;;;;;;5147752;27;20449;-65
2021/05/17 08:37:26;;;;;;;56.73;2.10;;;15.40;1.00;;;;;;5149873;27;20530;-67
2021/05/17 08:39:52;;;;;;;56.77;2.17;;;15.50;1.00;;;;;;5149779;27;20456;-66
2021/05/17 08:42:19;;;;;;;56.77;2.10;;;15.40;1.00;;;;;;5149149;27;20519;-66
2021/05/17 08:44:45;;;;;;;56.63;2.00;;;15.40;1.00;;;;;;5149812;27;20829;-66
2021/05/17 08:47:12;;;;;;;56.70;2.10;;;15.30;1.00;;;;;;5149863;27;20454;-66
2021/05/17 08:49:38;;;;;;;56.70;2.10;;;15.30;1.00;;;;;;5149729;27;21037;-66
2021/05/17 08:52:07;;;;;;;56.77;2.00;;;15.20;1.00;;;;;;5149192;27;21002;-66
2021/05/17 08:54:36;;;;;;;56.83;2.20;;;15.20;1.00;;;;;;5149598;27;20475;-67
2021/05/17 08:57:03;;;;;;;56.97;2.20;;;15.30;1.00;;;;;;5149859;27;20454;-66
2021/05/17 08:59:31;;;;;;;56.67;2.10;;;15.50;1.00;;;;;;5149809;27;20444;-67
2021/05/17 09:01:57;;;;;;;57.07;2.10;;;15.90;1.00;;;;;;5148966;27;20484;-66
2021/05/17 09:04:23;;;;;;;56.47;2.10;;;16.10;1.00;;;;;;5149408;27;20528;-67
2021/05/17 09:06:54;;;;;;;57.07;2.20;;;16.30;1.00;;;;;;5149585;27;20471;-67
2021/05/17 09:09:25;;;;;;;57.17;2.30;;;16.40;1.00;;;;;;5149065;27;20465;-66
2021/05/17 09:11:54;;;;;;;56.90;2.30;;;16.50;1.00;;;;;;5148993;27;20466;-66
2021/05/17 09:14:21;;;;;;;56.73;2.17;;;16.40;1.00;;;;;;5136736;27;20511;-66
2021/05/17 09:16:53;;;;;;;58.07;2.60;;;16.30;1.00;;;;;;5135239;27;20519;-68
2021/05/17 09:19:22;;;;;;;56.87;2.00;;;16.40;1.00;;;;;;5135371;27;20898;-67
2021/05/17 09:22:03;;;;;;;57.17;2.20;;;16.60;1.00;;;;;;5115565;27;20843;-68
2021/05/17 09:24:46;;;;;;;56.67;2.10;;;16.80;1.00;;;;;;5114856;28;20531;-67
2021/05/17 09:27:15;;;;;;;56.57;2.20;;;17.00;1.00;;;;;;5114992;28;20451;-67
2021/05/17 09:29:44;;;;;;;57.17;2.47;;;17.00;1.00;;;;;;5114684;28;20529;-67
2021/05/17 09:32:17;;;;;;;57.00;2.10;;;16.80;1.00;;;;;;5114136;28;20807;-66
2021/05/17 09:34:46;;;;;;;56.67;2.00;;;16.60;1.00;;;;;;5114498;28;20525;-67
2021/05/17 09:37:13;;;;;;;56.87;2.03;;;16.30;1.00;;;;;;5114579;28;20442;-67
2021/05/17 09:39:49;;;;;;;56.70;2.07;;;16.10;1.00;;;;;;5114347;28;20952;-66
2021/05/17 09:42:19;;;;;;;57.07;2.27;;;16.00;1.00;;;;;;5113873;28;20489;-67
2021/05/17 09:44:46;;;;;;;56.97;2.20;;;16.00;1.00;;;;;;5113967;28;20961;-66
2021/05/17 09:47:14;;;;;;;56.53;2.20;;;15.60;1.00;;;;;;5114433;28;20527;-68
2021/05/17 09:49:45;;;;;;;57.00;2.10;;;15.10;1.00;;;;;;5114388;28;20490;-66
2021/05/17 09:52:14;;;;;;;57.07;2.30;;;14.60;1.00;;;;;;5111761;28;20970;-67
2021/05/17 09:55:04;;;;;;;56.87;2.17;;;14.30;1.00;;;;;;5124369;27;20485;-67
2021/05/17 09:57:34;;;;;;;56.97;2.03;;;14.40;1.00;;;;;;5134863;27;20536;-67
2021/05/17 10:00:08;;;;;;;57.20;2.20;;;14.90;1.00;;;;;;5134590;27;20451;-67
2021/05/17 10:02:40;;;;;;;57.30;2.30;;;15.20;1.00;;;;;;5133856;27;21004;-67
2021/05/17 10:05:29;;;;;;;56.90;2.10;;;15.50;1.00;;;;;;5134189;27;20445;-67
2021/05/17 10:07:57;;;;;;;57.07;2.07;;;15.50;1.00;;;;;;5129976;27;20545;-67
2021/05/17 10:10:24;;;;;;;57.07;2.00;;;15.40;1.00;;;;;;5134376;27;20436;-67
2021/05/17 10:12:52;;;;;;;56.70;2.20;;;15.30;1.00;;;;;;5133841;27;20495;-66
2021/05/17 10:15:20;;;;;;;57.07;2.17;;;15.20;1.00;;;;;;5134187;27;20440;-66
2021/05/17 10:17:47;;;;;;;57.00;2.13;;;15.20;1.00;;;;;;5134225;27;20541;-67
2021/05/17 10:20:17;;;;;;;56.77;2.10;;;15.30;1.00;;;;;;5133820;27;20889;-67
2021/05/17 10:22:44;;;;;;;56.87;2.10;;;15.30;1.00;;;;;;5130281;27;20494;-67
2021/05/17 10:25:13;;;;;;;56.87;2.10;;;15.20;1.00;;;;;;5132704;27;20532;-67
2021/05/17 10:27:43;;;;;;;57.00;2.17;;;15.30;1.00;;;;;;5134142;27;20441;-66
2021/05/17 10:30:12;;;;;;;57.10;2.20;;;15.50;1.00;;;;;;5133949;27;20446;-67
2021/05/17 10:32:47;;;;;;;56.77;2.00;;;16.10;1.00;;;;;;5133377;27;20463;-67
2021/05/17 10:35:20;;;;;;;56.97;2.30;;;16.90;1.00;;;;;;5133424;27;20538;-67
2021/05/17 10:37:47;;;;;;;56.63;2.13;;;17.50;1.00;;;;;;5134364;27;20533;-67
2021/05/17 10:40:38;;;;;;;56.67;2.20;;;17.60;1.00;;;;;;5133740;27;20887;-66
2021/05/17 10:43:14;;;;;;;57.07;2.00;;;17.70;1.00;;;;;;5133103;27;20522;-67
2021/05/17 10:48:29;;;;;;;56.90;2.17;;;17.60;1.00;;;;;;5133590;27;20492;-67
2021/05/17 10:51:17;;;;;;;56.47;2.20;;;17.20;1.00;;;;;;5133525;27;20500;-67
2021/05/17 10:53:45;;;;;;;56.73;2.20;;;16.50;1.00;;;;;;5129431;27;20463;-66
2021/05/17 10:56:13;;;;;;;56.90;2.00;;;15.90;1.00;;;;;;5133541;27;20483;-67
2021/05/17 11:01:57;;;;;;;56.87;2.20;;;14.40;1.00;;;;;;5133021;27;20483;-66
2021/05/17 11:04:29;;;;;;;57.27;2.40;;;14.10;1.00;;;;;;5133107;27;20445;-67
2021/05/17 11:07:16;;;;;;;57.07;2.40;;;14.00;1.00;;;;;;5133403;27;20449;-66
2021/05/17 11:09:49;;;;;;;56.67;1.93;;;14.20;1.00;;;;;;5133190;27;20505;-67
2021/05/17 11:12:40;;;;;;;56.77;2.20;;;15.50;1.00;;;;;;5132644;27;20465;-67
2021/05/17 11:15:09;;;;;;;56.83;2.00;;;17.00;1.00;;;;;;5132766;27;21014;-67
2021/05/17 11:18:12;;;;;;;56.97;2.40;;;19.00;1.00;;;;;;5133163;27;20448;-67
2021/05/17 11:20:51;;;;;;;56.97;2.30;;;20.60;1.00;;;;;;5127958;27;20539;-67
2021/05/17 11:23:45;;;;;;;56.83;1.90;;;20.90;1.00;;;;;;5132584;27;20475;-67
2021/05/17 11:26:13;;;;;;;57.17;2.30;;;;;;;;;;5117133;27;20489;-67
2021/05/17 11:29:06;;;;;;;57.03;2.20;;;21.40;1.00;;;;;;5128397;27;20454;-67
2021/05/17 11:31:56;;;;;;;57.00;1.93;;;21.60;1.00;;;;;;5133155;27;20479;-67
2021/05/17 11:34:26;;;;;;;56.93;2.03;;;20.70;1.00;;;;;;5132515;27;20455;-67
2021/05/17 11:37:08;;;;;;;56.97;2.03;;;19.40;1.00;;;;;;5132373;27;20520;-67
2021/05/17 11:39:35;;;;;;;56.47;2.10;;;18.50;1.00;;;;;;5132936;27;20427;-67
2021/05/17 11:42:05;;;;;;;56.97;2.20;;;17.60;1.00;;;;;;5131956;27;20578;-67
2021/05/17 11:44:34;;;;;;;57.30;2.27;;;16.80;1.00;;;;;;5131652;27;20483;-68
2021/05/17 11:47:02;;;;;;;57.50;2.40;;;16.00;1.00;;;;;;5132635;27;20544;-67
2021/05/17 11:49:31;;;;;;;57.20;2.37;;;15.40;1.00;;;;;;5132609;27;20449;-67
2021/05/17 11:52:01;;;;;;;57.10;2.20;;;14.90;1.00;;;;;;5132053;27;20968;-67
2021/05/17 11:54:34;;;;;;;60.70;4.63;;;14.50;1.00;;;;;;5132544;27;20538;-67
2021/05/17 11:57:01;;;;;;;57.27;2.20;;;14.30;1.00;;;;;;5130325;27;20546;-67
2021/05/17 11:59:30;;;;;;;57.13;2.17;;;14.70;1.00;;;;;;5132325;27;20449;-67
2021/05/17 12:01:58;;;;;;;56.87;2.10;;;16.10;1.00;;;;;;5131755;27;20491;-67
2021/05/17 12:04:28;;;;;;;57.00;2.20;;;18.20;1.00;;;;;;5132164;27;20527;-67
2021/05/17 12:06:55;;;;;;;57.00;2.10;;;20.10;1.00;;;;;;5132266;27;20794;-67
2021/05/17 12:09:34;;;;;;;57.30;2.30;;;21.90;1.00;;;;;;5132376;27;20442;-67
2021/05/17 12:12:02;;;;;;;57.13;2.03;;;23.50;1.00;;;;;;5132105;27;20459;-65
2021/05/17 12:14:30;;;;;;;57.13;2.30;;;24.20;1.00;;;;;;5132235;27;20531;-65
2021/05/17 12:17:05;;;;;;;57.13;2.20;;;25.10;1.00;;;;;;5132044;27;20949;-66
2021/05/17 12:19:31;;;;;;;57.07;1.87;;;25.10;1.00;;;;;;5132218;27;20531;-65
2021/05/17 12:21:59;;;;;;;57.40;2.20;;;24.20;1.00;;;;;;5131771;27;21093;-66
2021/05/17 12:24:28;;;;;;;57.00;2.10;;;22.80;1.00;;;;;;5132060;27;20992;-66
2021/05/17 12:26:58;;;;;;;57.27;2.40;;;21.50;1.00;;;;;;5129160;27;20935;-66
2021/05/17 12:29:25;;;;;;;57.10;2.00;;;20.40;1.00;;;;;;5115430;28;20489;-66
2021/05/17 12:31:52;;;;;;;57.27;2.03;;;19.60;1.00;;;;;;5132081;27;20468;-66
2021/05/17 12:34:19;;;;;;;57.17;2.40;;;19.20;1.00;;;;;;5132272;27;20444;-65
2021/05/17 12:36:46;;;;;;;56.63;1.93;;;19.10;1.00;;;;;;5132269;27;20524;-66
2021/05/17 12:39:17;;;;;;;56.50;2.20;;;19.40;1.00;;;;;;5131838;27;20975;-65
2021/05/17 12:41:46;;;;;;;57.10;2.30;;;19.60;1.00;;;;;;5131826;27;20568;-66
2021/05/17 12:44:31;;;;;;;57.17;2.10;;;20.60;1.00;;;;;;5131857;27;20458;-67
2021/05/17 12:47:03;;;;;;;56.83;2.10;;;21.70;1.00;;;;;;5132015;27;20831;-66
2021/05/17 12:49:46;;;;;;;56.53;2.10;;;22.50;1.00;;;;;;5134939;27;20533;-66
2021/05/17 12:52:23;;;;;;;56.67;2.50;;;22.50;1.00;;;;;;5135481;27;20524;-65
2021/05/17 12:55:22;;;;;;;57.27;2.27;;;22.20;1.00;;;;;;5135806;27;20529;-66
2021/05/17 12:57:54;;;;;;;57.03;2.30;;;21.60;1.00;;;;;;5132351;27;20470;-66
2021/05/17 13:00:44;;;;;;;57.00;2.10;;;21.60;1.00;;;;;;5119602;27;20446;-66
2021/05/17 13:03:13;;;;;;;57.07;2.20;;;21.20;1.00;;;;;;5135648;27;20576;-65
2021/05/17 13:05:55;;;;;;;57.20;2.20;;;21.00;1.00;;;;;;5135870;27;20453;-67
2021/05/17 13:08:26;;;;;;;56.83;2.10;;;21.80;1.00;;;;;;5135621;27;20454;-67
2021/05/17 13:10:54;;;;;;;56.70;2.10;;;22.10;1.00;;;;;;5135758;27;20551;-66
2021/05/17 13:13:20;;;;;;;56.73;2.00;;;21.50;1.00;;;;;;5135085;27;20494;-66
2021/05/17 13:15:59;;;;;;;56.90;1.93;;;20.80;1.00;;;;;;5135474;27;20453;-67
2021/05/17 13:18:31;;;;;;;56.90;2.10;;;20.40;1.00;;;;;;5135682;27;20448;-67